sensor_id;sensor_type;location;lat;lon;timestamp;P1;durP1;ratioP1;P2;durP2;ratioP2
75772;SDS011;64381;0.000;0.000;2023-11-21T00:01:34;3.83;;;1.30;;
75772;SDS011;64381;0.000;0.000;2023-11-21T00:03:59;3.03;;;1.40;;
75772;SDS011;64381;0.000;0.000;2023-11-21T00:06:24;3.60;;;1.50;;
75772;SDS011;64381;0.000;0.000;2023-11-21T00:08:49;3.20;;;1.53;;
75772;SDS011;64381;0.000;0.000;2023-11-21T00:11:14;3.33;;;1.43;;
75772;SDS011;64381;0.000;0.000;2023-11-21T00:13:40;3.70;;;1.40;;
75772;SDS011;64381;0.000;0.000;2023-11-21T00:16:05;3.13;;;1.40;;
75772;SDS011;64381;0.000;0.000;2023-11-21T00:18:30;4.07;;;1.70;;
75772;SDS011;64381;0.000;0.000;2023-11-21T00:20:56;3.60;;;1.77;;
75772;SDS011;64381;0.000;0.000;2023-11-21T00:23:21;3.70;;;1.60;;
75772;SDS011;64381;0.000;0.000;2023-11-21T00:25:46;3.93;;;1.50;;
75772;SDS011;64381;0.000;0.000;2023-11-21T00:28:11;3.50;;;1.40;;
75772;SDS011;64381;0.000;0.000;2023-11-21T00:30:36;3.43;;;1.70;;
75772;SDS011;64381;0.000;0.000;2023-11-21T00:33:02;3.90;;;1.47;;
75772;SDS011;64381;0.000;0.000;2023-11-21T00:35:27;3.70;;;1.70;;
75772;SDS011;64381;0.000;0.000;2023-11-21T00:37:52;3.40;;;1.40;;
75772;SDS011;64381;0.000;0.000;2023-11-21T00:40:17;3.23;;;1.40;;
75772;SDS011;64381;0.000;0.000;2023-11-21T00:42:43;3.73;;;1.80;;
75772;SDS011;64381;0.000;0.000;2023-11-21T00:45:08;3.70;;;1.80;;
75772;SDS011;64381;0.000;0.000;2023-11-21T00:47:33;3.80;;;1.70;;
75772;SDS011;64381;0.000;0.000;2023-11-21T00:49:58;3.50;;;1.63;;
75772;SDS011;64381;0.000;0.000;2023-11-21T00:52:24;3.23;;;1.50;;
75772;SDS011;64381;0.000;0.000;2023-11-21T00:54:49;3.43;;;1.53;;
75772;SDS011;64381;0.000;0.000;2023-11-21T00:57:14;3.50;;;1.53;;
75772;SDS011;64381;0.000;0.000;2023-11-21T00:59:39;3.73;;;1.70;;
75772;SDS011;64381;0.000;0.000;2023-11-21T01:02:05;3.47;;;1.60;;
75772;SDS011;64381;0.000;0.000;2023-11-21T01:04:30;3.30;;;1.50;;
75772;SDS011;64381;0.000;0.000;2023-11-21T01:06:55;3.70;;;1.70;;
75772;SDS011;64381;0.000;0.000;2023-11-21T01:09:20;3.37;;;1.60;;
75772;SDS011;64381;0.000;0.000;2023-11-21T01:11:46;3.57;;;1.30;;
75772;SDS011;64381;0.000;0.000;2023-11-21T01:14:11;3.50;;;1.50;;
75772;SDS011;64381;0.000;0.000;2023-11-21T01:16:36;4.40;;;1.57;;
75772;SDS011;64381;0.000;0.000;2023-11-21T01:19:01;3.20;;;1.50;;
75772;SDS011;64381;0.000;0.000;2023-11-21T01:21:26;3.33;;;1.50;;
75772;SDS011;64381;0.000;0.000;2023-11-21T01:23:52;3.30;;;1.70;;
75772;SDS011;64381;0.000;0.000;2023-11-21T01:26:17;4.00;;;1.40;;
75772;SDS011;64381;0.000;0.000;2023-11-21T01:28:42;3.97;;;1.60;;
75772;SDS011;64381;0.000;0.000;2023-11-21T01:31:07;3.03;;;1.23;;
75772;SDS011;64381;0.000;0.000;2023-11-21T01:33:33;3.53;;;1.50;;
75772;SDS011;64381;0.000;0.000;2023-11-21T01:35:58;3.43;;;1.40;;
75772;SDS011;64381;0.000;0.000;2023-11-21T01:38:23;3.37;;;1.30;;
75772;SDS011;64381;0.000;0.000;2023-11-21T01:40:48;4.27;;;1.50;;
75772;SDS011;64381;0.000;0.000;2023-11-21T01:43:13;3.28;;;1.48;;
75772;SDS011;64381;0.000;0.000;2023-11-21T01:45:39;3.17;;;1.50;;
75772;SDS011;64381;0.000;0.000;2023-11-21T01:48:04;3.13;;;1.47;;
75772;SDS011;64381;0.000;0.000;2023-11-21T01:50:29;3.13;;;1.50;;
75772;SDS011;64381;0.000;0.000;2023-11-21T01:52:55;3.63;;;1.40;;
75772;SDS011;64381;0.000;0.000;2023-11-21T01:55:20;3.63;;;1.47;;
75772;SDS011;64381;0.000;0.000;2023-11-21T01:57:46;3.60;;;1.45;;
75772;SDS011;64381;0.000;0.000;2023-11-21T02:00:12;3.72;;;1.60;;
75772;SDS011;64381;0.000;0.000;2023-11-21T02:02:38;3.53;;;1.30;;
75772;SDS011;64381;0.000;0.000;2023-11-21T02:05:03;3.67;;;1.53;;
75772;SDS011;64381;0.000;0.000;2023-11-21T02:07:29;3.20;;;1.50;;
75772;SDS011;64381;0.000;0.000;2023-11-21T02:09:54;3.47;;;1.47;;
75772;SDS011;64381;0.000;0.000;2023-11-21T02:12:19;3.00;;;1.40;;
75772;SDS011;64381;0.000;0.000;2023-11-21T02:14:44;3.07;;;1.30;;
75772;SDS011;64381;0.000;0.000;2023-11-21T02:17:09;3.37;;;1.67;;
75772;SDS011;64381;0.000;0.000;2023-11-21T02:19:35;3.47;;;1.47;;
75772;SDS011;64381;0.000;0.000;2023-11-21T02:22:00;3.20;;;1.40;;
75772;SDS011;64381;0.000;0.000;2023-11-21T02:24:26;3.50;;;1.30;;
75772;SDS011;64381;0.000;0.000;2023-11-21T02:26:51;3.73;;;1.43;;
75772;SDS011;64381;0.000;0.000;2023-11-21T02:29:20;3.63;;;1.40;;
75772;SDS011;64381;0.000;0.000;2023-11-21T02:31:46;3.28;;;1.38;;
75772;SDS011;64381;0.000;0.000;2023-11-21T02:34:11;3.20;;;1.30;;
75772;SDS011;64381;0.000;0.000;2023-11-21T02:36:36;2.90;;;1.20;;
75772;SDS011;64381;0.000;0.000;2023-11-21T02:39:01;2.97;;;1.30;;
75772;SDS011;64381;0.000;0.000;2023-11-21T02:41:27;3.40;;;1.50;;
75772;SDS011;64381;0.000;0.000;2023-11-21T02:43:53;3.20;;;1.30;;
75772;SDS011;64381;0.000;0.000;2023-11-21T02:46:19;3.33;;;1.40;;
75772;SDS011;64381;0.000;0.000;2023-11-21T02:48:44;3.10;;;1.47;;
75772;SDS011;64381;0.000;0.000;2023-11-21T02:51:09;3.20;;;1.40;;
75772;SDS011;64381;0.000;0.000;2023-11-21T02:53:34;3.53;;;1.70;;
75772;SDS011;64381;0.000;0.000;2023-11-21T02:55:59;3.00;;;1.50;;
75772;SDS011;64381;0.000;0.000;2023-11-21T02:58:25;3.30;;;1.40;;
75772;SDS011;64381;0.000;0.000;2023-11-21T03:00:50;3.23;;;1.50;;
75772;SDS011;64381;0.000;0.000;2023-11-21T03:03:15;3.20;;;1.30;;
75772;SDS011;64381;0.000;0.000;2023-11-21T03:05:40;2.97;;;1.40;;
75772;SDS011;64381;0.000;0.000;2023-11-21T03:08:05;2.80;;;1.20;;
75772;SDS011;64381;0.000;0.000;2023-11-21T03:10:31;3.37;;;1.30;;
75772;SDS011;64381;0.000;0.000;2023-11-21T03:12:56;2.80;;;1.20;;
75772;SDS011;64381;0.000;0.000;2023-11-21T03:15:21;3.33;;;1.37;;
75772;SDS011;64381;0.000;0.000;2023-11-21T03:17:46;3.40;;;1.37;;
75772;SDS011;64381;0.000;0.000;2023-11-21T03:20:11;3.00;;;1.20;;
75772;SDS011;64381;0.000;0.000;2023-11-21T03:22:37;3.20;;;1.33;;
75772;SDS011;64381;0.000;0.000;2023-11-21T03:25:02;3.13;;;1.20;;
75772;SDS011;64381;0.000;0.000;2023-11-21T03:27:27;2.95;;;1.33;;
75772;SDS011;64381;0.000;0.000;2023-11-21T03:29:53;3.35;;;1.25;;
75772;SDS011;64381;0.000;0.000;2023-11-21T03:32:18;3.10;;;1.27;;
75772;SDS011;64381;0.000;0.000;2023-11-21T03:34:53;3.10;;;1.33;;
75772;SDS011;64381;0.000;0.000;2023-11-21T03:37:19;3.00;;;1.20;;
75772;SDS011;64381;0.000;0.000;2023-11-21T03:39:44;3.60;;;1.50;;
75772;SDS011;64381;0.000;0.000;2023-11-21T03:42:09;2.73;;;1.10;;
75772;SDS011;64381;0.000;0.000;2023-11-21T03:44:34;3.70;;;1.40;;
75772;SDS011;64381;0.000;0.000;2023-11-21T03:47:00;3.13;;;1.37;;
75772;SDS011;64381;0.000;0.000;2023-11-21T03:49:25;3.57;;;1.30;;
75772;SDS011;64381;0.000;0.000;2023-11-21T03:51:50;3.10;;;1.20;;
75772;SDS011;64381;0.000;0.000;2023-11-21T03:54:15;2.80;;;1.00;;
75772;SDS011;64381;0.000;0.000;2023-11-21T03:56:40;3.30;;;1.40;;
75772;SDS011;64381;0.000;0.000;2023-11-21T03:59:06;3.40;;;1.23;;
75772;SDS011;64381;0.000;0.000;2023-11-21T04:01:31;3.17;;;1.27;;
75772;SDS011;64381;0.000;0.000;2023-11-21T04:03:56;3.43;;;1.20;;
75772;SDS011;64381;0.000;0.000;2023-11-21T04:06:21;2.73;;;1.20;;
75772;SDS011;64381;0.000;0.000;2023-11-21T04:08:46;3.07;;;1.30;;
75772;SDS011;64381;0.000;0.000;2023-11-21T04:11:12;2.83;;;0.97;;
75772;SDS011;64381;0.000;0.000;2023-11-21T04:13:38;3.00;;;1.20;;
75772;SDS011;64381;0.000;0.000;2023-11-21T04:16:04;3.35;;;1.48;;
75772;SDS011;64381;0.000;0.000;2023-11-21T04:18:30;3.40;;;1.30;;
75772;SDS011;64381;0.000;0.000;2023-11-21T04:20:56;3.00;;;1.20;;
75772;SDS011;64381;0.000;0.000;2023-11-21T04:23:21;3.37;;;1.07;;
75772;SDS011;64381;0.000;0.000;2023-11-21T04:25:46;3.00;;;1.20;;
75772;SDS011;64381;0.000;0.000;2023-11-21T04:28:11;2.80;;;0.93;;
75772;SDS011;64381;0.000;0.000;2023-11-21T04:30:37;2.90;;;1.20;;
75772;SDS011;64381;0.000;0.000;2023-11-21T04:33:02;3.43;;;1.20;;
75772;SDS011;64381;0.000;0.000;2023-11-21T04:35:27;2.80;;;1.07;;
75772;SDS011;64381;0.000;0.000;2023-11-21T04:37:52;3.10;;;1.23;;
75772;SDS011;64381;0.000;0.000;2023-11-21T04:40:17;3.20;;;1.30;;
75772;SDS011;64381;0.000;0.000;2023-11-21T04:42:43;2.80;;;1.17;;
75772;SDS011;64381;0.000;0.000;2023-11-21T04:45:08;3.60;;;1.20;;
75772;SDS011;64381;0.000;0.000;2023-11-21T04:47:34;2.90;;;1.20;;
75772;SDS011;64381;0.000;0.000;2023-11-21T04:49:59;2.90;;;1.30;;
75772;SDS011;64381;0.000;0.000;2023-11-21T04:52:24;2.93;;;1.10;;
75772;SDS011;64381;0.000;0.000;2023-11-21T04:54:49;2.97;;;1.23;;
75772;SDS011;64381;0.000;0.000;2023-11-21T04:57:14;3.23;;;1.10;;
75772;SDS011;64381;0.000;0.000;2023-11-21T04:59:40;3.10;;;1.30;;
75772;SDS011;64381;0.000;0.000;2023-11-21T05:02:05;2.77;;;1.10;;
75772;SDS011;64381;0.000;0.000;2023-11-21T05:04:30;3.17;;;1.27;;
75772;SDS011;64381;0.000;0.000;2023-11-21T05:06:55;3.73;;;1.10;;
75772;SDS011;64381;0.000;0.000;2023-11-21T05:09:20;3.27;;;1.13;;
75772;SDS011;64381;0.000;0.000;2023-11-21T05:11:46;3.10;;;1.30;;
75772;SDS011;64381;0.000;0.000;2023-11-21T05:14:11;2.67;;;1.10;;
75772;SDS011;64381;0.000;0.000;2023-11-21T05:16:36;3.00;;;1.17;;
75772;SDS011;64381;0.000;0.000;2023-11-21T05:19:01;2.70;;;1.00;;
75772;SDS011;64381;0.000;0.000;2023-11-21T05:21:27;3.00;;;1.20;;
75772;SDS011;64381;0.000;0.000;2023-11-21T05:23:52;2.88;;;1.20;;
75772;SDS011;64381;0.000;0.000;2023-11-21T05:26:18;2.70;;;1.10;;
75772;SDS011;64381;0.000;0.000;2023-11-21T05:28:43;3.10;;;1.10;;
75772;SDS011;64381;0.000;0.000;2023-11-21T05:31:08;2.90;;;1.13;;
75772;SDS011;64381;0.000;0.000;2023-11-21T05:33:33;2.97;;;1.20;;
75772;SDS011;64381;0.000;0.000;2023-11-21T05:35:59;2.70;;;0.97;;
75772;SDS011;64381;0.000;0.000;2023-11-21T05:38:24;2.73;;;1.13;;
75772;SDS011;64381;0.000;0.000;2023-11-21T05:40:49;3.53;;;1.17;;
75772;SDS011;64381;0.000;0.000;2023-11-21T05:43:14;2.70;;;1.00;;
75772;SDS011;64381;0.000;0.000;2023-11-21T05:45:40;3.03;;;1.07;;
75772;SDS011;64381;0.000;0.000;2023-11-21T05:48:05;2.60;;;1.00;;
75772;SDS011;64381;0.000;0.000;2023-11-21T05:50:30;2.47;;;1.00;;
75772;SDS011;64381;0.000;0.000;2023-11-21T05:52:55;2.73;;;1.10;;
75772;SDS011;64381;0.000;0.000;2023-11-21T05:55:22;2.90;;;1.13;;
75772;SDS011;64381;0.000;0.000;2023-11-21T05:57:47;2.80;;;1.30;;
75772;SDS011;64381;0.000;0.000;2023-11-21T06:00:13;2.80;;;1.20;;
75772;SDS011;64381;0.000;0.000;2023-11-21T06:02:39;2.80;;;1.10;;
75772;SDS011;64381;0.000;0.000;2023-11-21T06:05:05;3.25;;;1.10;;
75772;SDS011;64381;0.000;0.000;2023-11-21T06:07:31;2.97;;;1.00;;
75772;SDS011;64381;0.000;0.000;2023-11-21T06:09:56;2.80;;;1.37;;
75772;SDS011;64381;0.000;0.000;2023-11-21T06:12:22;4.97;;;1.30;;
75772;SDS011;64381;0.000;0.000;2023-11-21T06:14:47;3.97;;;1.00;;
75772;SDS011;64381;0.000;0.000;2023-11-21T06:17:12;3.80;;;1.20;;
75772;SDS011;64381;0.000;0.000;2023-11-21T06:19:37;4.60;;;1.33;;
75772;SDS011;64381;0.000;0.000;2023-11-21T06:22:03;4.00;;;1.20;;
75772;SDS011;64381;0.000;0.000;2023-11-21T06:24:28;6.82;;;1.25;;
75772;SDS011;64381;0.000;0.000;2023-11-21T06:26:53;3.83;;;1.10;;
75772;SDS011;64381;0.000;0.000;2023-11-21T06:29:18;2.90;;;1.00;;
75772;SDS011;64381;0.000;0.000;2023-11-21T06:31:44;2.80;;;0.90;;
75772;SDS011;64381;0.000;0.000;2023-11-21T06:34:09;3.00;;;1.07;;
75772;SDS011;64381;0.000;0.000;2023-11-21T06:36:34;2.87;;;1.10;;
75772;SDS011;64381;0.000;0.000;2023-11-21T06:38:59;3.00;;;1.10;;
75772;SDS011;64381;0.000;0.000;2023-11-21T06:41:24;3.03;;;1.07;;
75772;SDS011;64381;0.000;0.000;2023-11-21T06:43:50;3.63;;;1.30;;
75772;SDS011;64381;0.000;0.000;2023-11-21T06:46:15;4.33;;;1.10;;
75772;SDS011;64381;0.000;0.000;2023-11-21T06:48:42;4.90;;;1.50;;
75772;SDS011;64381;0.000;0.000;2023-11-21T06:51:07;3.40;;;1.30;;
75772;SDS011;64381;0.000;0.000;2023-11-21T06:53:32;3.87;;;1.00;;
75772;SDS011;64381;0.000;0.000;2023-11-21T06:55:58;2.90;;;1.00;;
75772;SDS011;64381;0.000;0.000;2023-11-21T06:58:23;3.10;;;1.37;;
75772;SDS011;64381;0.000;0.000;2023-11-21T07:00:48;3.00;;;1.10;;
75772;SDS011;64381;0.000;0.000;2023-11-21T07:03:13;3.13;;;1.00;;
75772;SDS011;64381;0.000;0.000;2023-11-21T07:05:39;3.07;;;1.07;;
75772;SDS011;64381;0.000;0.000;2023-11-21T07:08:04;3.33;;;1.03;;
75772;SDS011;64381;0.000;0.000;2023-11-21T07:10:29;4.57;;;1.10;;
75772;SDS011;64381;0.000;0.000;2023-11-21T07:12:54;3.25;;;1.10;;
75772;SDS011;64381;0.000;0.000;2023-11-21T07:15:20;2.77;;;1.10;;
75772;SDS011;64381;0.000;0.000;2023-11-21T07:17:45;3.77;;;1.27;;
75772;SDS011;64381;0.000;0.000;2023-11-21T07:20:10;3.60;;;1.30;;
75772;SDS011;64381;0.000;0.000;2023-11-21T07:22:36;2.80;;;1.07;;
75772;SDS011;64381;0.000;0.000;2023-11-21T07:25:01;3.00;;;1.20;;
75772;SDS011;64381;0.000;0.000;2023-11-21T07:27:26;3.53;;;1.20;;
75772;SDS011;64381;0.000;0.000;2023-11-21T07:29:51;4.20;;;1.23;;
75772;SDS011;64381;0.000;0.000;2023-11-21T07:32:17;3.03;;;1.30;;
75772;SDS011;64381;0.000;0.000;2023-11-21T07:34:42;3.10;;;1.23;;
75772;SDS011;64381;0.000;0.000;2023-11-21T07:37:07;3.33;;;1.20;;
75772;SDS011;64381;0.000;0.000;2023-11-21T07:39:33;3.35;;;1.25;;
75772;SDS011;64381;0.000;0.000;2023-11-21T07:41:58;3.47;;;1.10;;
75772;SDS011;64381;0.000;0.000;2023-11-21T07:44:23;3.57;;;1.10;;
75772;SDS011;64381;0.000;0.000;2023-11-21T07:46:48;2.80;;;1.00;;
75772;SDS011;64381;0.000;0.000;2023-11-21T07:49:14;3.67;;;1.17;;
75772;SDS011;64381;0.000;0.000;2023-11-21T07:51:39;2.87;;;1.10;;
75772;SDS011;64381;0.000;0.000;2023-11-21T07:54:04;2.77;;;0.90;;
75772;SDS011;64381;0.000;0.000;2023-11-21T07:56:29;2.90;;;1.20;;
75772;SDS011;64381;0.000;0.000;2023-11-21T07:58:55;4.07;;;1.40;;
75772;SDS011;64381;0.000;0.000;2023-11-21T08:01:20;3.20;;;1.30;;
75772;SDS011;64381;0.000;0.000;2023-11-21T08:03:45;2.80;;;1.10;;
75772;SDS011;64381;0.000;0.000;2023-11-21T08:06:10;2.53;;;0.93;;
75772;SDS011;64381;0.000;0.000;2023-11-21T08:08:35;2.93;;;1.07;;
75772;SDS011;64381;0.000;0.000;2023-11-21T08:11:01;2.77;;;1.10;;
75772;SDS011;64381;0.000;0.000;2023-11-21T08:13:26;3.50;;;1.40;;
75772;SDS011;64381;0.000;0.000;2023-11-21T08:15:56;3.45;;;1.20;;
75772;SDS011;64381;0.000;0.000;2023-11-21T08:18:22;3.08;;;1.10;;
75772;SDS011;64381;0.000;0.000;2023-11-21T08:20:47;4.10;;;1.10;;
75772;SDS011;64381;0.000;0.000;2023-11-21T08:23:14;2.83;;;1.10;;
75772;SDS011;64381;0.000;0.000;2023-11-21T08:25:40;3.13;;;1.10;;
75772;SDS011;64381;0.000;0.000;2023-11-21T08:28:05;4.20;;;0.97;;
75772;SDS011;64381;0.000;0.000;2023-11-21T08:30:30;3.03;;;1.10;;
75772;SDS011;64381;0.000;0.000;2023-11-21T08:32:55;3.00;;;1.03;;
75772;SDS011;64381;0.000;0.000;2023-11-21T08:35:21;2.77;;;1.10;;
75772;SDS011;64381;0.000;0.000;2023-11-21T08:37:46;2.60;;;1.10;;
75772;SDS011;64381;0.000;0.000;2023-11-21T08:40:11;2.60;;;1.17;;
75772;SDS011;64381;0.000;0.000;2023-11-21T08:42:37;2.83;;;1.00;;
75772;SDS011;64381;0.000;0.000;2023-11-21T08:45:02;2.90;;;0.93;;
75772;SDS011;64381;0.000;0.000;2023-11-21T08:47:27;2.43;;;0.93;;
75772;SDS011;64381;0.000;0.000;2023-11-21T08:49:52;3.07;;;1.23;;
75772;SDS011;64381;0.000;0.000;2023-11-21T08:52:18;3.07;;;0.90;;
75772;SDS011;64381;0.000;0.000;2023-11-21T08:54:43;3.00;;;1.00;;
75772;SDS011;64381;0.000;0.000;2023-11-21T08:57:09;2.80;;;1.00;;
75772;SDS011;64381;0.000;0.000;2023-11-21T08:59:34;2.60;;;0.97;;
75772;SDS011;64381;0.000;0.000;2023-11-21T09:01:59;2.57;;;0.90;;
75772;SDS011;64381;0.000;0.000;2023-11-21T09:04:24;3.17;;;0.90;;
75772;SDS011;64381;0.000;0.000;2023-11-21T09:06:49;2.77;;;1.00;;
75772;SDS011;64381;0.000;0.000;2023-11-21T09:09:15;2.70;;;1.00;;
75772;SDS011;64381;0.000;0.000;2023-11-21T09:11:40;3.10;;;1.10;;
75772;SDS011;64381;0.000;0.000;2023-11-21T09:14:05;3.43;;;1.10;;
75772;SDS011;64381;0.000;0.000;2023-11-21T09:16:30;2.80;;;0.90;;
75772;SDS011;64381;0.000;0.000;2023-11-21T09:18:55;2.87;;;0.90;;
75772;SDS011;64381;0.000;0.000;2023-11-21T09:21:21;2.93;;;1.00;;
75772;SDS011;64381;0.000;0.000;2023-11-21T09:23:46;2.63;;;1.00;;
75772;SDS011;64381;0.000;0.000;2023-11-21T09:26:12;3.22;;;1.02;;
75772;SDS011;64381;0.000;0.000;2023-11-21T09:28:38;2.87;;;1.20;;
75772;SDS011;64381;0.000;0.000;2023-11-21T09:31:04;3.00;;;1.30;;
75772;SDS011;64381;0.000;0.000;2023-11-21T09:33:29;2.50;;;0.90;;
75772;SDS011;64381;0.000;0.000;2023-11-21T09:35:55;2.93;;;0.90;;
75772;SDS011;64381;0.000;0.000;2023-11-21T09:38:20;3.07;;;1.33;;
75772;SDS011;64381;0.000;0.000;2023-11-21T09:40:45;3.47;;;1.00;;
75772;SDS011;64381;0.000;0.000;2023-11-21T09:43:17;3.20;;;0.80;;
75772;SDS011;64381;0.000;0.000;2023-11-21T09:45:46;2.78;;;0.95;;
75772;SDS011;64381;0.000;0.000;2023-11-21T09:48:12;2.42;;;0.90;;
75772;SDS011;64381;0.000;0.000;2023-11-21T09:50:39;2.75;;;0.90;;
75772;SDS011;64381;0.000;0.000;2023-11-21T09:55:37;2.93;;;1.00;;
75772;SDS011;64381;0.000;0.000;2023-11-21T09:58:04;2.40;;;0.90;;
75772;SDS011;64381;0.000;0.000;2023-11-21T10:00:29;2.60;;;0.80;;
75772;SDS011;64381;0.000;0.000;2023-11-21T10:02:55;2.80;;;1.08;;
75772;SDS011;64381;0.000;0.000;2023-11-21T10:05:23;3.05;;;1.25;;
75772;SDS011;64381;0.000;0.000;2023-11-21T10:07:49;2.67;;;1.00;;
75772;SDS011;64381;0.000;0.000;2023-11-21T10:10:15;2.60;;;0.95;;
75772;SDS011;64381;0.000;0.000;2023-11-21T10:12:43;2.97;;;1.00;;
75772;SDS011;64381;0.000;0.000;2023-11-21T10:15:14;2.88;;;1.00;;
75772;SDS011;64381;0.000;0.000;2023-11-21T10:17:40;2.65;;;1.00;;
75772;SDS011;64381;0.000;0.000;2023-11-21T10:20:06;2.87;;;1.07;;
75772;SDS011;64381;0.000;0.000;2023-11-21T10:22:32;2.40;;;0.90;;
75772;SDS011;64381;0.000;0.000;2023-11-21T10:24:57;2.85;;;1.23;;
75772;SDS011;64381;0.000;0.000;2023-11-21T10:27:23;2.57;;;0.90;;
75772;SDS011;64381;0.000;0.000;2023-11-21T10:29:51;2.90;;;0.80;;
75772;SDS011;64381;0.000;0.000;2023-11-21T10:32:17;3.00;;;1.10;;
75772;SDS011;64381;0.000;0.000;2023-11-21T10:34:42;3.10;;;0.97;;
75772;SDS011;64381;0.000;0.000;2023-11-21T10:37:11;2.83;;;1.10;;
75772;SDS011;64381;0.000;0.000;2023-11-21T10:39:36;2.42;;;0.80;;
75772;SDS011;64381;0.000;0.000;2023-11-21T10:42:03;3.10;;;1.10;;
75772;SDS011;64381;0.000;0.000;2023-11-21T10:44:29;2.60;;;0.90;;
75772;SDS011;64381;0.000;0.000;2023-11-21T10:46:54;2.90;;;1.00;;
75772;SDS011;64381;0.000;0.000;2023-11-21T10:49:20;2.67;;;1.08;;
75772;SDS011;64381;0.000;0.000;2023-11-21T10:51:45;2.97;;;1.00;;
75772;SDS011;64381;0.000;0.000;2023-11-21T10:54:10;2.47;;;1.03;;
75772;SDS011;64381;0.000;0.000;2023-11-21T10:56:36;2.60;;;1.00;;
75772;SDS011;64381;0.000;0.000;2023-11-21T10:59:01;2.50;;;0.90;;
75772;SDS011;64381;0.000;0.000;2023-11-21T11:01:27;2.60;;;1.00;;
75772;SDS011;64381;0.000;0.000;2023-11-21T11:03:54;2.70;;;1.02;;
75772;SDS011;64381;0.000;0.000;2023-11-21T11:06:20;2.70;;;1.00;;
75772;SDS011;64381;0.000;0.000;2023-11-21T11:08:46;2.47;;;0.90;;
75772;SDS011;64381;0.000;0.000;2023-11-21T11:11:13;2.50;;;1.00;;
75772;SDS011;64381;0.000;0.000;2023-11-21T11:13:38;2.80;;;0.90;;
75772;SDS011;64381;0.000;0.000;2023-11-21T11:16:08;2.75;;;1.00;;
75772;SDS011;64381;0.000;0.000;2023-11-21T11:18:34;2.80;;;1.00;;
75772;SDS011;64381;0.000;0.000;2023-11-21T11:21:46;2.77;;;0.90;;
75772;SDS011;64381;0.000;0.000;2023-11-21T11:30:04;2.37;;;0.80;;
75772;SDS011;64381;0.000;0.000;2023-11-21T11:36:22;2.50;;;1.00;;
75772;SDS011;64381;0.000;0.000;2023-11-21T11:38:32;2.75;;;0.90;;
75772;SDS011;64381;0.000;0.000;2023-11-21T11:40:58;2.60;;;1.00;;
75772;SDS011;64381;0.000;0.000;2023-11-21T11:43:27;3.03;;;0.80;;
75772;SDS011;64381;0.000;0.000;2023-11-21T11:45:56;2.50;;;0.88;;
75772;SDS011;64381;0.000;0.000;2023-11-21T11:48:22;2.42;;;0.90;;
75772;SDS011;64381;0.000;0.000;2023-11-21T11:51:03;2.70;;;1.10;;
75772;SDS011;64381;0.000;0.000;2023-11-21T11:53:33;2.50;;;0.80;;
75772;SDS011;64381;0.000;0.000;2023-11-21T11:56:18;2.40;;;0.90;;
75772;SDS011;64381;0.000;0.000;2023-11-21T11:59:02;2.50;;;0.90;;
75772;SDS011;64381;0.000;0.000;2023-11-21T12:01:28;2.67;;;1.00;;
75772;SDS011;64381;0.000;0.000;2023-11-21T12:06:36;2.92;;;1.00;;
75772;SDS011;64381;0.000;0.000;2023-11-21T12:09:02;3.00;;;1.03;;
75772;SDS011;64381;0.000;0.000;2023-11-21T12:11:31;3.47;;;1.00;;
75772;SDS011;64381;0.000;0.000;2023-11-21T12:13:57;2.50;;;0.83;;
75772;SDS011;64381;0.000;0.000;2023-11-21T12:16:23;3.10;;;0.90;;
75772;SDS011;64381;0.000;0.000;2023-11-21T12:18:50;2.53;;;1.00;;
75772;SDS011;64381;0.000;0.000;2023-11-21T12:21:15;2.60;;;0.90;;
75772;SDS011;64381;0.000;0.000;2023-11-21T12:23:41;2.60;;;1.00;;
75772;SDS011;64381;0.000;0.000;2023-11-21T12:26:06;3.07;;;1.00;;
75772;SDS011;64381;0.000;0.000;2023-11-21T12:28:31;2.75;;;1.10;;
75772;SDS011;64381;0.000;0.000;2023-11-21T12:30:56;2.67;;;1.00;;
75772;SDS011;64381;0.000;0.000;2023-11-21T12:33:22;2.67;;;1.10;;
75772;SDS011;64381;0.000;0.000;2023-11-21T12:35:47;2.60;;;1.10;;
75772;SDS011;64381;0.000;0.000;2023-11-21T12:38:12;2.80;;;1.05;;
75772;SDS011;64381;0.000;0.000;2023-11-21T12:40:37;2.40;;;0.90;;
75772;SDS011;64381;0.000;0.000;2023-11-21T12:43:03;3.00;;;0.90;;
75772;SDS011;64381;0.000;0.000;2023-11-21T12:45:28;2.80;;;0.90;;
75772;SDS011;64381;0.000;0.000;2023-11-21T12:47:55;2.50;;;0.90;;
75772;SDS011;64381;0.000;0.000;2023-11-21T12:50:30;2.50;;;0.90;;
75772;SDS011;64381;0.000;0.000;2023-11-21T12:52:59;2.40;;;0.90;;
75772;SDS011;64381;0.000;0.000;2023-11-21T12:55:29;2.35;;;0.90;;
75772;SDS011;64381;0.000;0.000;2023-11-21T12:57:55;2.50;;;0.90;;
75772;SDS011;64381;0.000;0.000;2023-11-21T13:00:27;2.63;;;1.10;;
75772;SDS011;64381;0.000;0.000;2023-11-21T13:02:56;2.55;;;0.93;;
75772;SDS011;64381;0.000;0.000;2023-11-21T13:05:26;2.50;;;0.97;;
75772;SDS011;64381;0.000;0.000;2023-11-21T13:08:02;2.22;;;0.80;;
75772;SDS011;64381;0.000;0.000;2023-11-21T13:10:29;2.30;;;0.80;;
75772;SDS011;64381;0.000;0.000;2023-11-21T13:12:57;2.60;;;0.90;;
75772;SDS011;64381;0.000;0.000;2023-11-21T13:15:27;2.85;;;1.02;;
75772;SDS011;64381;0.000;0.000;2023-11-21T13:17:53;2.33;;;0.90;;
75772;SDS011;64381;0.000;0.000;2023-11-21T13:20:19;2.58;;;0.90;;
75772;SDS011;64381;0.000;0.000;2023-11-21T13:22:48;2.40;;;0.90;;
75772;SDS011;64381;0.000;0.000;2023-11-21T13:25:21;2.50;;;0.80;;
75772;SDS011;64381;0.000;0.000;2023-11-21T13:27:46;2.50;;;1.00;;
75772;SDS011;64381;0.000;0.000;2023-11-21T13:30:12;2.47;;;0.85;;
75772;SDS011;64381;0.000;0.000;2023-11-21T13:32:38;2.70;;;0.80;;
75772;SDS011;64381;0.000;0.000;2023-11-21T13:35:03;2.50;;;0.90;;
75772;SDS011;64381;0.000;0.000;2023-11-21T13:37:29;2.78;;;0.95;;
75772;SDS011;64381;0.000;0.000;2023-11-21T13:39:54;2.70;;;0.87;;
75772;SDS011;64381;0.000;0.000;2023-11-21T13:42:20;2.23;;;0.80;;
75772;SDS011;64381;0.000;0.000;2023-11-21T13:44:45;2.50;;;0.90;;
75772;SDS011;64381;0.000;0.000;2023-11-21T13:47:10;2.33;;;0.83;;
75772;SDS011;64381;0.000;0.000;2023-11-21T13:49:35;2.60;;;1.00;;
75772;SDS011;64381;0.000;0.000;2023-11-21T13:52:01;2.60;;;0.90;;
75772;SDS011;64381;0.000;0.000;2023-11-21T13:54:26;2.40;;;1.00;;
75772;SDS011;64381;0.000;0.000;2023-11-21T13:56:51;2.53;;;1.00;;
75772;SDS011;64381;0.000;0.000;2023-11-21T13:59:16;2.27;;;0.87;;
75772;SDS011;64381;0.000;0.000;2023-11-21T14:01:41;2.53;;;0.90;;
75772;SDS011;64381;0.000;0.000;2023-11-21T14:04:07;2.40;;;0.90;;
75772;SDS011;64381;0.000;0.000;2023-11-21T14:06:32;2.40;;;0.90;;
75772;SDS011;64381;0.000;0.000;2023-11-21T14:08:57;2.23;;;0.80;;
75772;SDS011;64381;0.000;0.000;2023-11-21T14:11:22;2.50;;;1.00;;
75772;SDS011;64381;0.000;0.000;2023-11-21T14:13:47;2.30;;;0.80;;
75772;SDS011;64381;0.000;0.000;2023-11-21T14:16:13;2.43;;;0.83;;
75772;SDS011;64381;0.000;0.000;2023-11-21T14:18:38;2.25;;;0.88;;
75772;SDS011;64381;0.000;0.000;2023-11-21T14:21:06;2.20;;;0.90;;
75772;SDS011;64381;0.000;0.000;2023-11-21T14:23:32;2.17;;;0.77;;
75772;SDS011;64381;0.000;0.000;2023-11-21T14:25:57;2.53;;;0.90;;
75772;SDS011;64381;0.000;0.000;2023-11-21T14:28:22;2.77;;;1.00;;
75772;SDS011;64381;0.000;0.000;2023-11-21T14:30:48;2.90;;;0.98;;
75772;SDS011;64381;0.000;0.000;2023-11-21T14:33:13;2.30;;;0.90;;
75772;SDS011;64381;0.000;0.000;2023-11-21T14:35:38;2.37;;;0.87;;
75772;SDS011;64381;0.000;0.000;2023-11-21T14:38:04;2.40;;;0.80;;
75772;SDS011;64381;0.000;0.000;2023-11-21T14:40:29;2.30;;;0.80;;
75772;SDS011;64381;0.000;0.000;2023-11-21T14:42:54;2.40;;;0.80;;
75772;SDS011;64381;0.000;0.000;2023-11-21T14:45:19;2.80;;;0.97;;
75772;SDS011;64381;0.000;0.000;2023-11-21T14:47:45;2.40;;;0.90;;
75772;SDS011;64381;0.000;0.000;2023-11-21T14:50:13;2.63;;;0.82;;
75772;SDS011;64381;0.000;0.000;2023-11-21T14:52:38;2.50;;;1.03;;
75772;SDS011;64381;0.000;0.000;2023-11-21T14:55:04;2.20;;;0.80;;
75772;SDS011;64381;0.000;0.000;2023-11-21T14:57:29;2.35;;;0.88;;
75772;SDS011;64381;0.000;0.000;2023-11-21T14:59:54;2.47;;;0.80;;
75772;SDS011;64381;0.000;0.000;2023-11-21T15:02:20;2.67;;;1.10;;
75772;SDS011;64381;0.000;0.000;2023-11-21T15:04:45;2.40;;;0.90;;
75772;SDS011;64381;0.000;0.000;2023-11-21T15:07:10;2.40;;;0.90;;